sensor_id;sensor_type;location;lat;lon;timestamp;P1;durP1;ratioP1;P2;durP2;ratioP2
17985;SDS011;9118;48.122;11.546;2022-10-16T00:01:05;7.47;;;4.53;;
17985;SDS011;9118;48.122;11.546;2022-10-16T00:03:33;7.57;;;4.73;;
17985;SDS011;9118;48.122;11.546;2022-10-16T00:06:00;6.00;;;5.00;;
17985;SDS011;9118;48.122;11.546;2022-10-16T00:08:29;5.77;;;4.43;;
17985;SDS011;9118;48.122;11.546;2022-10-16T00:11:00;8.50;;;5.00;;
17985;SDS011;9118;48.122;11.546;2022-10-16T00:13:29;6.93;;;4.30;;
17985;SDS011;9118;48.122;11.546;2022-10-16T00:15:56;6.37;;;4.40;;
17985;SDS011;9118;48.122;11.546;2022-10-16T00:18:24;9.27;;;4.20;;
17985;SDS011;9118;48.122;11.546;2022-10-16T00:20:52;6.87;;;4.00;;
17985;SDS011;9118;48.122;11.546;2022-10-16T00:23:20;5.87;;;4.03;;
17985;SDS011;9118;48.122;11.546;2022-10-16T00:25:55;4.87;;;4.20;;
17985;SDS011;9118;48.122;11.546;2022-10-16T00:28:23;5.60;;;4.20;;
17985;SDS011;9118;48.122;11.546;2022-10-16T00:30:51;5.83;;;4.23;;
17985;SDS011;9118;48.122;11.546;2022-10-16T00:33:18;6.17;;;3.93;;
17985;SDS011;9118;48.122;11.546;2022-10-16T00:35:45;4.63;;;3.80;;
17985;SDS011;9118;48.122;11.546;2022-10-16T00:38:12;5.27;;;4.53;;
17985;SDS011;9118;48.122;11.546;2022-10-16T00:40:40;7.20;;;5.10;;
17985;SDS011;9118;48.122;11.546;2022-10-16T00:43:10;8.30;;;4.37;;
17985;SDS011;9118;48.122;11.546;2022-10-16T00:45:40;5.73;;;3.97;;
17985;SDS011;9118;48.122;11.546;2022-10-16T00:48:10;4.37;;;3.60;;
17985;SDS011;9118;48.122;11.546;2022-10-16T00:50:39;5.27;;;3.97;;
17985;SDS011;9118;48.122;11.546;2022-10-16T00:53:08;3.90;;;3.53;;
17985;SDS011;9118;48.122;11.546;2022-10-16T00:55:37;15.47;;;4.03;;
17985;SDS011;9118;48.122;11.546;2022-10-16T00:58:04;7.70;;;4.47;;
17985;SDS011;9118;48.122;11.546;2022-10-16T01:00:34;6.50;;;3.67;;
17985;SDS011;9118;48.122;11.546;2022-10-16T01:03:01;4.00;;;3.70;;
17985;SDS011;9118;48.122;11.546;2022-10-16T01:05:30;5.13;;;4.00;;
17985;SDS011;9118;48.122;11.546;2022-10-16T01:08:02;6.30;;;3.93;;
17985;SDS011;9118;48.122;11.546;2022-10-16T01:10:35;5.40;;;3.80;;
17985;SDS011;9118;48.122;11.546;2022-10-16T01:13:05;5.80;;;3.87;;
17985;SDS011;9118;48.122;11.546;2022-10-16T01:15:36;3.90;;;3.50;;
17985;SDS011;9118;48.122;11.546;2022-10-16T01:18:08;5.93;;;3.80;;
17985;SDS011;9118;48.122;11.546;2022-10-16T01:20:42;5.30;;;3.60;;
17985;SDS011;9118;48.122;11.546;2022-10-16T01:23:21;7.17;;;4.13;;
17985;SDS011;9118;48.122;11.546;2022-10-16T01:26:10;6.37;;;4.03;;
17985;SDS011;9118;48.122;11.546;2022-10-16T01:28:52;6.00;;;3.77;;
17985;SDS011;9118;48.122;11.546;2022-10-16T01:31:24;6.17;;;3.77;;
17985;SDS011;9118;48.122;11.546;2022-10-16T01:33:56;4.80;;;3.70;;
17985;SDS011;9118;48.122;11.546;2022-10-16T01:36:27;5.40;;;3.80;;
17985;SDS011;9118;48.122;11.546;2022-10-16T01:39:01;5.40;;;3.77;;
17985;SDS011;9118;48.122;11.546;2022-10-16T01:41:30;6.87;;;3.70;;
17985;SDS011;9118;48.122;11.546;2022-10-16T01:44:03;4.80;;;3.50;;
17985;SDS011;9118;48.122;11.546;2022-10-16T01:46:34;5.00;;;3.33;;
17985;SDS011;9118;48.122;11.546;2022-10-16T01:49:04;4.27;;;3.23;;
17985;SDS011;9118;48.122;11.546;2022-10-16T01:51:32;5.10;;;3.40;;
17985;SDS011;9118;48.122;11.546;2022-10-16T01:54:01;4.70;;;3.70;;
17985;SDS011;9118;48.122;11.546;2022-10-16T01:56:30;5.40;;;4.00;;
17985;SDS011;9118;48.122;11.546;2022-10-16T01:59:00;6.63;;;3.93;;
17985;SDS011;9118;48.122;11.546;2022-10-16T02:01:33;5.03;;;3.77;;
17985;SDS011;9118;48.122;11.546;2022-10-16T02:04:03;5.50;;;4.07;;
17985;SDS011;9118;48.122;11.546;2022-10-16T02:06:39;6.70;;;3.80;;
17985;SDS011;9118;48.122;11.546;2022-10-16T02:09:06;3.67;;;3.10;;
17985;SDS011;9118;48.122;11.546;2022-10-16T02:11:33;3.87;;;2.70;;
17985;SDS011;9118;48.122;11.546;2022-10-16T02:14:01;2.83;;;2.60;;
17985;SDS011;9118;48.122;11.546;2022-10-16T02:16:32;5.37;;;2.63;;
17985;SDS011;9118;48.122;11.546;2022-10-16T02:19:00;2.60;;;2.40;;
17985;SDS011;9118;48.122;11.546;2022-10-16T02:21:28;3.73;;;2.43;;
17985;SDS011;9118;48.122;11.546;2022-10-16T02:24:01;4.87;;;2.50;;
17985;SDS011;9118;48.122;11.546;2022-10-16T02:26:34;2.73;;;2.30;;
17985;SDS011;9118;48.122;11.546;2022-10-16T02:29:10;3.23;;;2.77;;
17985;SDS011;9118;48.122;11.546;2022-10-16T02:31:43;2.80;;;2.60;;
17985;SDS011;9118;48.122;11.546;2022-10-16T02:34:12;6.67;;;3.13;;
17985;SDS011;9118;48.122;11.546;2022-10-16T02:36:42;3.27;;;2.50;;
17985;SDS011;9118;48.122;11.546;2022-10-16T02:39:10;3.43;;;3.13;;
17985;SDS011;9118;48.122;11.546;2022-10-16T02:41:38;3.00;;;2.50;;
17985;SDS011;9118;48.122;11.546;2022-10-16T02:44:05;8.70;;;2.73;;
17985;SDS011;9118;48.122;11.546;2022-10-16T02:46:34;2.77;;;2.43;;
17985;SDS011;9118;48.122;11.546;2022-10-16T02:49:00;5.93;;;2.67;;
17985;SDS011;9118;48.122;11.546;2022-10-16T02:51:27;3.03;;;2.73;;
17985;SDS011;9118;48.122;11.546;2022-10-16T02:53:54;2.53;;;2.33;;
17985;SDS011;9118;48.122;11.546;2022-10-16T02:56:21;4.60;;;2.50;;
17985;SDS011;9118;48.122;11.546;2022-10-16T02:58:49;3.13;;;2.60;;
17985;SDS011;9118;48.122;11.546;2022-10-16T03:01:15;2.70;;;2.50;;
17985;SDS011;9118;48.122;11.546;2022-10-16T03:03:44;2.93;;;2.57;;
17985;SDS011;9118;48.122;11.546;2022-10-16T03:06:11;4.97;;;2.60;;
17985;SDS011;9118;48.122;11.546;2022-10-16T03:08:38;3.10;;;2.20;;
17985;SDS011;9118;48.122;11.546;2022-10-16T03:11:05;5.03;;;3.20;;
17985;SDS011;9118;48.122;11.546;2022-10-16T03:13:32;3.33;;;2.60;;
17985;SDS011;9118;48.122;11.546;2022-10-16T03:15:59;3.17;;;2.80;;
17985;SDS011;9118;48.122;11.546;2022-10-16T03:18:26;3.43;;;2.80;;
17985;SDS011;9118;48.122;11.546;2022-10-16T03:20:54;5.43;;;4.50;;
17985;SDS011;9118;48.122;11.546;2022-10-16T03:23:21;4.37;;;3.20;;
17985;SDS011;9118;48.122;11.546;2022-10-16T03:25:48;3.63;;;2.60;;
17985;SDS011;9118;48.122;11.546;2022-10-16T03:28:15;4.37;;;2.47;;
17985;SDS011;9118;48.122;11.546;2022-10-16T03:30:43;3.47;;;3.00;;
17985;SDS011;9118;48.122;11.546;2022-10-16T03:33:10;4.80;;;2.53;;
17985;SDS011;9118;48.122;11.546;2022-10-16T03:35:37;2.53;;;2.30;;
17985;SDS011;9118;48.122;11.546;2022-10-16T03:38:05;2.80;;;2.20;;
17985;SDS011;9118;48.122;11.546;2022-10-16T03:40:32;2.37;;;2.17;;
17985;SDS011;9118;48.122;11.546;2022-10-16T03:42:59;2.77;;;2.57;;
17985;SDS011;9118;48.122;11.546;2022-10-16T03:45:26;2.20;;;2.00;;
17985;SDS011;9118;48.122;11.546;2022-10-16T03:47:53;3.90;;;2.20;;
17985;SDS011;9118;48.122;11.546;2022-10-16T03:50:20;3.03;;;2.20;;
17985;SDS011;9118;48.122;11.546;2022-10-16T03:52:47;2.73;;;1.93;;
17985;SDS011;9118;48.122;11.546;2022-10-16T03:55:16;2.80;;;2.33;;
17985;SDS011;9118;48.122;11.546;2022-10-16T03:57:43;2.07;;;1.93;;
17985;SDS011;9118;48.122;11.546;2022-10-16T04:00:10;4.60;;;2.33;;
17985;SDS011;9118;48.122;11.546;2022-10-16T04:02:38;2.20;;;1.93;;
17985;SDS011;9118;48.122;11.546;2022-10-16T04:05:06;3.40;;;2.20;;
17985;SDS011;9118;48.122;11.546;2022-10-16T04:07:33;3.90;;;2.10;;
17985;SDS011;9118;48.122;11.546;2022-10-16T04:10:00;2.43;;;2.23;;
17985;SDS011;9118;48.122;11.546;2022-10-16T04:12:29;2.97;;;2.50;;
17985;SDS011;9118;48.122;11.546;2022-10-16T04:14:56;2.77;;;2.23;;
17985;SDS011;9118;48.122;11.546;2022-10-16T04:17:23;6.50;;;2.40;;
17985;SDS011;9118;48.122;11.546;2022-10-16T04:19:50;2.47;;;2.27;;
17985;SDS011;9118;48.122;11.546;2022-10-16T04:22:17;3.07;;;2.10;;
17985;SDS011;9118;48.122;11.546;2022-10-16T04:24:44;4.50;;;2.20;;
17985;SDS011;9118;48.122;11.546;2022-10-16T04:27:11;3.20;;;2.10;;
17985;SDS011;9118;48.122;11.546;2022-10-16T04:29:40;2.33;;;1.90;;
17985;SDS011;9118;48.122;11.546;2022-10-16T04:32:07;2.37;;;2.17;;
17985;SDS011;9118;48.122;11.546;2022-10-16T04:34:35;2.57;;;2.10;;
17985;SDS011;9118;48.122;11.546;2022-10-16T04:37:03;2.27;;;2.07;;
17985;SDS011;9118;48.122;11.546;2022-10-16T04:39:30;3.60;;;2.50;;
17985;SDS011;9118;48.122;11.546;2022-10-16T04:41:57;3.67;;;2.30;;
17985;SDS011;9118;48.122;11.546;2022-10-16T04:44:24;2.30;;;2.10;;
17985;SDS011;9118;48.122;11.546;2022-10-16T04:46:52;2.43;;;2.00;;
17985;SDS011;9118;48.122;11.546;2022-10-16T04:49:19;6.53;;;2.37;;
17985;SDS011;9118;48.122;11.546;2022-10-16T04:51:46;5.43;;;2.60;;
17985;SDS011;9118;48.122;11.546;2022-10-16T04:54:13;3.13;;;2.40;;
17985;SDS011;9118;48.122;11.546;2022-10-16T04:56:40;2.80;;;2.27;;
17985;SDS011;9118;48.122;11.546;2022-10-16T04:59:12;4.97;;;3.57;;
17985;SDS011;9118;48.122;11.546;2022-10-16T05:01:39;2.70;;;2.20;;
17985;SDS011;9118;48.122;11.546;2022-10-16T05:04:08;4.13;;;2.37;;
17985;SDS011;9118;48.122;11.546;2022-10-16T05:06:35;3.50;;;2.20;;
17985;SDS011;9118;48.122;11.546;2022-10-16T05:09:03;2.87;;;2.20;;
17985;SDS011;9118;48.122;11.546;2022-10-16T05:11:30;4.57;;;2.47;;
17985;SDS011;9118;48.122;11.546;2022-10-16T05:13:57;3.07;;;2.50;;
17985;SDS011;9118;48.122;11.546;2022-10-16T05:16:24;5.10;;;2.53;;
17985;SDS011;9118;48.122;11.546;2022-10-16T05:18:51;5.20;;;2.83;;
17985;SDS011;9118;48.122;11.546;2022-10-16T05:21:20;4.17;;;2.40;;
17985;SDS011;9118;48.122;11.546;2022-10-16T05:23:47;2.57;;;2.37;;
17985;SDS011;9118;48.122;11.546;2022-10-16T05:26:14;3.67;;;2.40;;
17985;SDS011;9118;48.122;11.546;2022-10-16T05:28:41;2.40;;;2.20;;
17985;SDS011;9118;48.122;11.546;2022-10-16T05:31:08;6.23;;;2.50;;
17985;SDS011;9118;48.122;11.546;2022-10-16T05:33:36;3.33;;;2.30;;
17985;SDS011;9118;48.122;11.546;2022-10-16T05:36:03;3.87;;;2.43;;
17985;SDS011;9118;48.122;11.546;2022-10-16T05:38:36;3.00;;;2.70;;
17985;SDS011;9118;48.122;11.546;2022-10-16T05:41:04;3.00;;;2.40;;
17985;SDS011;9118;48.122;11.546;2022-10-16T05:43:31;5.67;;;2.40;;
17985;SDS011;9118;48.122;11.546;2022-10-16T05:45:59;3.90;;;2.80;;
17985;SDS011;9118;48.122;11.546;2022-10-16T05:48:27;5.33;;;2.90;;
17985;SDS011;9118;48.122;11.546;2022-10-16T05:50:57;2.93;;;2.73;;
17985;SDS011;9118;48.122;11.546;2022-10-16T05:53:26;4.17;;;2.60;;
17985;SDS011;9118;48.122;11.546;2022-10-16T05:55:55;3.20;;;2.90;;
17985;SDS011;9118;48.122;11.546;2022-10-16T05:58:23;5.37;;;2.80;;
17985;SDS011;9118;48.122;11.546;2022-10-16T06:00:54;3.57;;;2.27;;
17985;SDS011;9118;48.122;11.546;2022-10-16T06:03:22;3.63;;;2.50;;
17985;SDS011;9118;48.122;11.546;2022-10-16T06:05:49;4.93;;;2.77;;
17985;SDS011;9118;48.122;11.546;2022-10-16T06:08:16;5.43;;;2.80;;
17985;SDS011;9118;48.122;11.546;2022-10-16T06:10:45;5.53;;;2.70;;
17985;SDS011;9118;48.122;11.546;2022-10-16T06:13:15;5.40;;;3.17;;
17985;SDS011;9118;48.122;11.546;2022-10-16T06:15:42;7.30;;;2.87;;
17985;SDS011;9118;48.122;11.546;2022-10-16T06:18:10;3.50;;;2.73;;
17985;SDS011;9118;48.122;11.546;2022-10-16T06:20:37;5.43;;;3.10;;
17985;SDS011;9118;48.122;11.546;2022-10-16T06:23:04;5.73;;;2.90;;
17985;SDS011;9118;48.122;11.546;2022-10-16T06:25:31;8.03;;;3.57;;
17985;SDS011;9118;48.122;11.546;2022-10-16T06:27:58;3.67;;;2.83;;
17985;SDS011;9118;48.122;11.546;2022-10-16T06:30:27;4.73;;;2.90;;
17985;SDS011;9118;48.122;11.546;2022-10-16T06:32:54;4.17;;;3.07;;
17985;SDS011;9118;48.122;11.546;2022-10-16T06:35:21;4.10;;;3.53;;
17985;SDS011;9118;48.122;11.546;2022-10-16T06:37:48;3.57;;;3.17;;
17985;SDS011;9118;48.122;11.546;2022-10-16T06:40:20;3.87;;;3.47;;
17985;SDS011;9118;48.122;11.546;2022-10-16T06:42:56;5.17;;;3.20;;
17985;SDS011;9118;48.122;11.546;2022-10-16T06:45:27;8.90;;;3.67;;
17985;SDS011;9118;48.122;11.546;2022-10-16T06:47:54;4.93;;;3.63;;
17985;SDS011;9118;48.122;11.546;2022-10-16T06:50:21;5.23;;;3.63;;
17985;SDS011;9118;48.122;11.546;2022-10-16T06:52:48;7.17;;;3.47;;
17985;SDS011;9118;48.122;11.546;2022-10-16T06:55:15;6.30;;;3.80;;
17985;SDS011;9118;48.122;11.546;2022-10-16T06:57:46;4.50;;;3.50;;
17985;SDS011;9118;48.122;11.546;2022-10-16T07:00:13;3.77;;;3.30;;
17985;SDS011;9118;48.122;11.546;2022-10-16T07:02:42;4.80;;;3.77;;
17985;SDS011;9118;48.122;11.546;2022-10-16T07:05:09;4.87;;;3.70;;
17985;SDS011;9118;48.122;11.546;2022-10-16T07:07:36;6.07;;;3.80;;
17985;SDS011;9118;48.122;11.546;2022-10-16T07:10:03;5.53;;;3.80;;
17985;SDS011;9118;48.122;11.546;2022-10-16T07:12:30;5.40;;;4.17;;
17985;SDS011;9118;48.122;11.546;2022-10-16T07:14:57;4.00;;;3.60;;
17985;SDS011;9118;48.122;11.546;2022-10-16T07:17:24;6.20;;;3.60;;
17985;SDS011;9118;48.122;11.546;2022-10-16T07:19:53;8.00;;;3.70;;
17985;SDS011;9118;48.122;11.546;2022-10-16T07:22:20;5.57;;;3.53;;
17985;SDS011;9118;48.122;11.546;2022-10-16T07:24:47;6.57;;;3.90;;
17985;SDS011;9118;48.122;11.546;2022-10-16T07:27:15;5.10;;;3.53;;
17985;SDS011;9118;48.122;11.546;2022-10-16T07:29:42;5.77;;;3.97;;
17985;SDS011;9118;48.122;11.546;2022-10-16T07:32:09;5.33;;;3.40;;
17985;SDS011;9118;48.122;11.546;2022-10-16T07:34:36;7.80;;;5.17;;
17985;SDS011;9118;48.122;11.546;2022-10-16T07:37:04;14.00;;;10.37;;
17985;SDS011;9118;48.122;11.546;2022-10-16T07:39:31;6.97;;;4.73;;
17985;SDS011;9118;48.122;11.546;2022-10-16T07:41:58;5.77;;;3.77;;
17985;SDS011;9118;48.122;11.546;2022-10-16T07:44:25;5.40;;;3.60;;
17985;SDS011;9118;48.122;11.546;2022-10-16T07:46:52;4.43;;;3.87;;
17985;SDS011;9118;48.122;11.546;2022-10-16T07:49:19;5.83;;;3.90;;
17985;SDS011;9118;48.122;11.546;2022-10-16T07:51:46;5.37;;;3.90;;
17985;SDS011;9118;48.122;11.546;2022-10-16T07:54:14;4.37;;;3.57;;
17985;SDS011;9118;48.122;11.546;2022-10-16T07:56:41;5.13;;;3.63;;
17985;SDS011;9118;48.122;11.546;2022-10-16T07:59:08;4.20;;;3.00;;
17985;SDS011;9118;48.122;11.546;2022-10-16T08:01:35;4.10;;;3.20;;
17985;SDS011;9118;48.122;11.546;2022-10-16T08:04:02;3.20;;;2.90;;
17985;SDS011;9118;48.122;11.546;2022-10-16T08:06:29;3.33;;;3.03;;
17985;SDS011;9118;48.122;11.546;2022-10-16T08:09:03;5.93;;;3.77;;
17985;SDS011;9118;48.122;11.546;2022-10-16T08:11:31;4.70;;;3.83;;
17985;SDS011;9118;48.122;11.546;2022-10-16T08:13:59;3.40;;;3.00;;
17985;SDS011;9118;48.122;11.546;2022-10-16T08:16:26;4.50;;;3.60;;
17985;SDS011;9118;48.122;11.546;2022-10-16T08:18:53;3.87;;;2.97;;
17985;SDS011;9118;48.122;11.546;2022-10-16T08:21:21;3.07;;;2.60;;
17985;SDS011;9118;48.122;11.546;2022-10-16T08:23:49;3.83;;;3.07;;
17985;SDS011;9118;48.122;11.546;2022-10-16T08:26:16;3.50;;;2.87;;
17985;SDS011;9118;48.122;11.546;2022-10-16T08:28:45;3.10;;;2.90;;
17985;SDS011;9118;48.122;11.546;2022-10-16T08:31:15;2.60;;;2.40;;
17985;SDS011;9118;48.122;11.546;2022-10-16T08:33:43;6.17;;;2.80;;
17985;SDS011;9118;48.122;11.546;2022-10-16T08:36:12;3.07;;;2.53;;
17985;SDS011;9118;48.122;11.546;2022-10-16T08:38:39;4.67;;;3.30;;
17985;SDS011;9118;48.122;11.546;2022-10-16T08:47:16;4.10;;;2.63;;
17985;SDS011;9118;48.122;11.546;2022-10-16T08:49:50;3.37;;;2.53;;
17985;SDS011;9118;48.122;11.546;2022-10-16T08:52:23;2.53;;;2.33;;
17985;SDS011;9118;48.122;11.546;2022-10-16T08:54:55;3.00;;;2.50;;
17985;SDS011;9118;48.122;11.546;2022-10-16T08:57:24;2.67;;;2.33;;
17985;SDS011;9118;48.122;11.546;2022-10-16T08:59:53;2.50;;;2.23;;
17985;SDS011;9118;48.122;11.546;2022-10-16T09:02:27;2.63;;;2.30;;
17985;SDS011;9118;48.122;11.546;2022-10-16T09:05:02;3.03;;;2.50;;
17985;SDS011;9118;48.122;11.546;2022-10-16T09:07:49;2.87;;;2.57;;
17985;SDS011;9118;48.122;11.546;2022-10-16T09:10:27;2.60;;;2.40;;
17985;SDS011;9118;48.122;11.546;2022-10-16T09:13:08;3.47;;;2.40;;
17985;SDS011;9118;48.122;11.546;2022-10-16T09:15:46;2.80;;;2.60;;
17985;SDS011;9118;48.122;11.546;2022-10-16T09:18:22;3.60;;;2.47;;
17985;SDS011;9118;48.122;11.546;2022-10-16T09:20:57;3.10;;;2.23;;
17985;SDS011;9118;48.122;11.546;2022-10-16T09:23:34;2.67;;;2.20;;
17985;SDS011;9118;48.122;11.546;2022-10-16T09:26:03;3.57;;;2.70;;
17985;SDS011;9118;48.122;11.546;2022-10-16T09:28:31;4.47;;;4.00;;
17985;SDS011;9118;48.122;11.546;2022-10-16T09:31:00;4.90;;;2.70;;
17985;SDS011;9118;48.122;11.546;2022-10-16T09:33:28;3.43;;;2.53;;
17985;SDS011;9118;48.122;11.546;2022-10-16T09:35:59;4.57;;;2.70;;
17985;SDS011;9118;48.122;11.546;2022-10-16T09:38:29;3.80;;;3.20;;
17985;SDS011;9118;48.122;11.546;2022-10-16T09:40:57;5.57;;;3.20;;
17985;SDS011;9118;48.122;11.546;2022-10-16T09:43:26;3.37;;;2.80;;
17985;SDS011;9118;48.122;11.546;2022-10-16T09:46:02;3.63;;;3.33;;
17985;SDS011;9118;48.122;11.546;2022-10-16T09:48:31;2.80;;;2.60;;
17985;SDS011;9118;48.122;11.546;2022-10-16T09:51:03;3.93;;;3.10;;
17985;SDS011;9118;48.122;11.546;2022-10-16T09:53:38;2.97;;;2.77;;
17985;SDS011;9118;48.122;11.546;2022-10-16T09:56:09;4.67;;;3.00;;
17985;SDS011;9118;48.122;11.546;2022-10-16T09:58:41;3.20;;;2.53;;
17985;SDS011;9118;48.122;11.546;2022-10-16T10:01:11;3.30;;;3.00;;
17985;SDS011;9118;48.122;11.546;2022-10-16T10:03:41;3.10;;;2.80;;
17985;SDS011;9118;48.122;11.546;2022-10-16T10:06:17;6.83;;;3.73;;
17985;SDS011;9118;48.122;11.546;2022-10-16T10:08:52;3.83;;;2.90;;
17985;SDS011;9118;48.122;11.546;2022-10-16T10:11:40;3.00;;;2.80;;
17985;SDS011;9118;48.122;11.546;2022-10-16T10:14:24;3.50;;;3.20;;
17985;SDS011;9118;48.122;11.546;2022-10-16T10:17:07;3.57;;;3.03;;
17985;SDS011;9118;48.122;11.546;2022-10-16T10:19:38;5.10;;;4.20;;
17985;SDS011;9118;48.122;11.546;2022-10-16T10:22:13;4.57;;;3.10;;
17985;SDS011;9118;48.122;11.546;2022-10-16T10:24:45;5.13;;;3.60;;
17985;SDS011;9118;48.122;11.546;2022-10-16T10:27:22;5.43;;;3.77;;
17985;SDS011;9118;48.122;11.546;2022-10-16T10:29:55;4.30;;;2.63;;
17985;SDS011;9118;48.122;11.546;2022-10-16T10:32:31;6.07;;;4.17;;
17985;SDS011;9118;48.122;11.546;2022-10-16T10:35:13;6.37;;;4.60;;
17985;SDS011;9118;48.122;11.546;2022-10-16T10:37:51;2.50;;;2.30;;
17985;SDS011;9118;48.122;11.546;2022-10-16T10:40:39;2.50;;;2.30;;
17985;SDS011;9118;48.122;11.546;2022-10-16T10:43:17;3.60;;;2.30;;
17985;SDS011;9118;48.122;11.546;2022-10-16T10:46:00;2.73;;;2.53;;
17985;SDS011;9118;48.122;11.546;2022-10-16T10:48:42;3.80;;;2.57;;
17985;SDS011;9118;48.122;11.546;2022-10-16T10:51:27;2.93;;;2.73;;
17985;SDS011;9118;48.122;11.546;2022-10-16T10:54:03;2.77;;;2.20;;
17985;SDS011;9118;48.122;11.546;2022-10-16T10:56:42;1.90;;;1.80;;
17985;SDS011;9118;48.122;11.546;2022-10-16T10:59:34;2.30;;;2.20;;
17985;SDS011;9118;48.122;11.546;2022-10-16T11:02:22;2.57;;;2.37;;
17985;SDS011;9118;48.122;11.546;2022-10-16T11:05:05;3.50;;;2.50;;
17985;SDS011;9118;48.122;11.546;2022-10-16T11:07:45;3.07;;;2.03;;
17985;SDS011;9118;48.122;11.546;2022-10-16T11:10:16;2.03;;;1.90;;
17985;SDS011;9118;48.122;11.546;2022-10-16T11:12:47;2.57;;;1.67;;
17985;SDS011;9118;48.122;11.546;2022-10-16T11:15:18;2.00;;;1.80;;
17985;SDS011;9118;48.122;11.546;2022-10-16T11:17:50;2.07;;;1.60;;
17985;SDS011;9118;48.122;11.546;2022-10-16T11:20:23;1.67;;;1.57;;
17985;SDS011;9118;48.122;11.546;2022-10-16T11:22:53;1.70;;;1.60;;
17985;SDS011;9118;48.122;11.546;2022-10-16T11:25:23;2.43;;;2.23;;
17985;SDS011;9118;48.122;11.546;2022-10-16T11:27:54;1.90;;;1.30;;
17985;SDS011;9118;48.122;11.546;2022-10-16T11:30:27;1.70;;;1.60;;
17985;SDS011;9118;48.122;11.546;2022-10-16T11:33:04;1.70;;;1.60;;
17985;SDS011;9118;48.122;11.546;2022-10-16T11:35:43;1.50;;;1.40;;
17985;SDS011;9118;48.122;11.546;2022-10-16T11:38:15;2.27;;;1.73;;
17985;SDS011;9118;48.122;11.546;2022-10-16T11:40:48;1.53;;;1.43;;
17985;SDS011;9118;48.122;11.546;2022-10-16T11:43:20;1.63;;;1.30;;
17985;SDS011;9118;48.122;11.546;2022-10-16T11:45:51;1.60;;;1.50;;
17985;SDS011;9118;48.122;11.546;2022-10-16T11:48:23;1.50;;;1.40;;
17985;SDS011;9118;48.122;11.546;2022-10-16T11:50:58;1.93;;;1.80;;
17985;SDS011;9118;48.122;11.546;2022-10-16T11:53:38;3.23;;;1.53;;
17985;SDS011;9118;48.122;11.546;2022-10-16T11:56:12;1.43;;;1.30;;
17985;SDS011;9118;48.122;11.546;2022-10-16T11:58:44;1.00;;;0.90;;
17985;SDS011;9118;48.122;11.546;2022-10-16T12:01:20;2.13;;;1.40;;
17985;SDS011;9118;48.122;11.546;2022-10-16T12:03:59;8.43;;;1.53;;
17985;SDS011;9118;48.122;11.546;2022-10-16T12:06:35;2.87;;;2.67;;
17985;SDS011;9118;48.122;11.546;2022-10-16T12:09:09;1.80;;;1.70;;
17985;SDS011;9118;48.122;11.546;2022-10-16T12:11:41;1.60;;;1.50;;
17985;SDS011;9118;48.122;11.546;2022-10-16T12:17:01;1.50;;;1.40;;
17985;SDS011;9118;48.122;11.546;2022-10-16T12:19:31;1.47;;;1.37;;
17985;SDS011;9118;48.122;11.546;2022-10-16T12:22:01;1.80;;;1.23;;
17985;SDS011;9118;48.122;11.546;2022-10-16T12:24:31;1.33;;;1.23;;
17985;SDS011;9118;48.122;11.546;2022-10-16T12:27:01;3.23;;;2.03;;
17985;SDS011;9118;48.122;11.546;2022-10-16T12:29:32;1.40;;;1.30;;
17985;SDS011;9118;48.122;11.546;2022-10-16T12:32:02;1.73;;;1.13;;
17985;SDS011;9118;48.122;11.546;2022-10-16T12:34:32;1.37;;;1.30;;
17985;SDS011;9118;48.122;11.546;2022-10-16T12:37:09;1.77;;;1.10;;
17985;SDS011;9118;48.122;11.546;2022-10-16T12:39:39;2.97;;;1.40;;
17985;SDS011;9118;48.122;11.546;2022-10-16T12:42:19;1.60;;;1.43;;
17985;SDS011;9118;48.122;11.546;2022-10-16T12:44:49;1.37;;;1.27;;
17985;SDS011;9118;48.122;11.546;2022-10-16T12:47:20;1.43;;;1.17;;
17985;SDS011;9118;48.122;11.546;2022-10-16T12:49:49;1.50;;;1.30;;
17985;SDS011;9118;48.122;11.546;2022-10-16T12:52:27;1.33;;;1.23;;
17985;SDS011;9118;48.122;11.546;2022-10-16T12:54:56;1.30;;;1.30;;
17985;SDS011;9118;48.122;11.546;2022-10-16T12:57:32;2.47;;;1.50;;
17985;SDS011;9118;48.122;11.546;2022-10-16T13:00:10;1.73;;;1.63;;
17985;SDS011;9118;48.122;11.546;2022-10-16T13:02:56;2.97;;;1.80;;
17985;SDS011;9118;48.122;11.546;2022-10-16T13:05:46;2.93;;;1.60;;
17985;SDS011;9118;48.122;11.546;2022-10-16T13:08:29;3.20;;;1.90;;
17985;SDS011;9118;48.122;11.546;2022-10-16T13:11:17;1.70;;;1.60;;
17985;SDS011;9118;48.122;11.546;2022-10-16T13:17:06;4.03;;;3.23;;
17985;SDS011;9118;48.122;11.546;2022-10-16T13:19:42;5.70;;;3.93;;
17985;SDS011;9118;48.122;11.546;2022-10-16T13:22:17;5.73;;;4.37;;
17985;SDS011;9118;48.122;11.546;2022-10-16T13:25:02;2.27;;;2.07;;
17985;SDS011;9118;48.122;11.546;2022-10-16T13:27:45;2.47;;;1.60;;
17985;SDS011;9118;48.122;11.546;2022-10-16T13:30:19;1.83;;;1.60;;
17985;SDS011;9118;48.122;11.546;2022-10-16T13:32:50;2.97;;;1.40;;
17985;SDS011;9118;48.122;11.546;2022-10-16T13:35:25;1.77;;;1.47;;
17985;SDS011;9118;48.122;11.546;2022-10-16T13:38:02;2.17;;;1.67;;
17985;SDS011;9118;48.122;11.546;2022-10-16T13:40:32;1.60;;;1.50;;
17985;SDS011;9118;48.122;11.546;2022-10-16T13:42:59;2.13;;;1.90;;
17985;SDS011;9118;48.122;11.546;2022-10-16T13:45:27;1.93;;;1.27;;
17985;SDS011;9118;48.122;11.546;2022-10-16T13:48:01;2.87;;;1.60;;
17985;SDS011;9118;48.122;11.546;2022-10-16T13:50:29;1.83;;;1.70;;
17985;SDS011;9118;48.122;11.546;2022-10-16T13:55:41;5.37;;;1.90;;
17985;SDS011;9118;48.122;11.546;2022-10-16T13:58:12;2.28;;;2.08;;
17985;SDS011;9118;48.122;11.546;2022-10-16T14:00:40;4.00;;;3.47;;
17985;SDS011;9118;48.122;11.546;2022-10-16T14:03:19;1.90;;;1.43;;
17985;SDS011;9118;48.122;11.546;2022-10-16T14:05:46;2.33;;;2.07;;
17985;SDS011;9118;48.122;11.546;2022-10-16T14:08:16;1.20;;;1.20;;
17985;SDS011;9118;48.122;11.546;2022-10-16T14:10:46;2.00;;;1.80;;
17985;SDS011;9118;48.122;11.546;2022-10-16T14:13:16;3.03;;;2.30;;
17985;SDS011;9118;48.122;11.546;2022-10-16T14:15:46;2.17;;;1.27;;
17985;SDS011;9118;48.122;11.546;2022-10-16T14:18:16;1.50;;;1.40;;
17985;SDS011;9118;48.122;11.546;2022-10-16T14:20:47;2.42;;;1.50;;
17985;SDS011;9118;48.122;11.546;2022-10-16T14:23:19;1.60;;;1.50;;
17985;SDS011;9118;48.122;11.546;2022-10-16T14:25:49;1.10;;;1.10;;
17985;SDS011;9118;48.122;11.546;2022-10-16T14:28:17;1.43;;;1.33;;
17985;SDS011;9118;48.122;11.546;2022-10-16T14:30:49;1.83;;;1.40;;
17985;SDS011;9118;48.122;11.546;2022-10-16T14:33:21;1.83;;;1.70;;
17985;SDS011;9118;48.122;11.546;2022-10-16T14:36:00;2.50;;;1.10;;
17985;SDS011;9118;48.122;11.546;2022-10-16T14:38:30;3.57;;;2.03;;
17985;SDS011;9118;48.122;11.546;2022-10-16T14:41:00;2.55;;;2.17;;
17985;SDS011;9118;48.122;11.546;2022-10-16T14:43:29;1.40;;;1.30;;
17985;SDS011;9118;48.122;11.546;2022-10-16T14:45:59;1.03;;;1.03;;
17985;SDS011;9118;48.122;11.546;2022-10-16T14:48:29;1.10;;;1.10;;
17985;SDS011;9118;48.122;11.546;2022-10-16T14:50:56;2.10;;;1.60;;
17985;SDS011;9118;48.122;11.546;2022-10-16T14:53:23;2.72;;;1.65;;
17985;SDS011;9118;48.122;11.546;2022-10-16T14:55:50;0.90;;;0.90;;
17985;SDS011;9118;48.122;11.546;2022-10-16T14:58:19;2.70;;;1.80;;
17985;SDS011;9118;48.122;11.546;2022-10-16T15:00:48;2.93;;;2.50;;
17985;SDS011;9118;48.122;11.546;2022-10-16T15:03:15;2.27;;;1.90;;
17985;SDS011;9118;48.122;11.546;2022-10-16T15:05:43;4.60;;;2.40;;
17985;SDS011;9118;48.122;11.546;2022-10-16T15:08:13;2.17;;;1.70;;
17985;SDS011;9118;48.122;11.546;2022-10-16T15:10:42;3.57;;;2.20;;
17985;SDS011;9118;48.122;11.546;2022-10-16T15:13:11;5.40;;;2.77;;
17985;SDS011;9118;48.122;11.546;2022-10-16T15:15:42;2.60;;;2.40;;
17985;SDS011;9118;48.122;11.546;2022-10-16T15:18:10;4.03;;;2.63;;
17985;SDS011;9118;48.122;11.546;2022-10-16T15:20:39;3.23;;;2.40;;
17985;SDS011;9118;48.122;11.546;2022-10-16T15:23:10;4.50;;;2.80;;